createdAt,value
2022-12-22T00:00:32.250Z,17.80
2022-12-22T00:03:19.956Z,17.80
2022-12-22T00:06:07.292Z,17.80
2022-12-22T00:08:55.592Z,17.80
2022-12-22T00:11:45.963Z,17.80
2022-12-22T00:14:33.620Z,17.80
2022-12-22T00:17:22.827Z,17.80
2022-12-22T00:20:15.065Z,17.80
2022-12-22T00:23:05.738Z,17.90
2022-12-22T00:25:53.036Z,17.90
2022-12-22T00:28:40.281Z,17.90
2022-12-22T00:31:28.042Z,18.00
2022-12-22T00:34:15.575Z,18.00
2022-12-22T00:37:03.670Z,18.10
2022-12-22T00:39:51.187Z,18.10
2022-12-22T00:42:38.550Z,18.10
2022-12-22T00:45:26.768Z,18.20
2022-12-22T00:48:14.229Z,18.30
2022-12-22T00:51:03.001Z,18.40
2022-12-22T00:53:50.918Z,18.50
2022-12-22T00:56:38.188Z,18.50
2022-12-22T00:59:26.272Z,18.60
2022-12-22T01:02:13.950Z,18.70
2022-12-22T01:05:01.506Z,18.70
2022-12-22T01:07:49.631Z,18.80
2022-12-22T01:10:46.873Z,18.90
2022-12-22T01:13:37.945Z,19.00
2022-12-22T01:16:25.744Z,19.10
2022-12-22T01:19:13.308Z,19.20
2022-12-22T01:22:01.009Z,19.20
2022-12-22T01:24:50.529Z,19.30
2022-12-22T01:27:38.290Z,19.40
2022-12-22T01:30:26.612Z,19.40
2022-12-22T01:33:14.249Z,19.50
2022-12-22T01:36:01.887Z,19.60
2022-12-22T01:38:49.314Z,19.70
2022-12-22T01:41:40.627Z,19.70
2022-12-22T01:44:37.485Z,19.80
2022-12-22T01:47:49.145Z,19.90
2022-12-22T01:50:53.606Z,20.00
2022-12-22T01:53:47.093Z,20.10
2022-12-22T01:56:34.712Z,20.20
2022-12-22T01:59:24.366Z,20.20
2022-12-22T02:02:12.212Z,20.30
2022-12-22T02:05:07.262Z,20.40
2022-12-22T02:08:35.543Z,20.50
2022-12-22T02:12:06.099Z,20.60
2022-12-22T02:15:00.348Z,20.70
2022-12-22T02:18:03.224Z,20.70
2022-12-22T02:21:34.026Z,20.80
2022-12-22T02:25:00.193Z,20.90
2022-12-22T02:27:49.098Z,21.00
2022-12-22T02:30:36.667Z,21.10
2022-12-22T02:33:24.631Z,21.20
2022-12-22T02:36:42.625Z,21.30
2022-12-22T02:40:18.462Z,21.40
2022-12-22T02:43:53.267Z,21.50
2022-12-22T02:47:02.813Z,21.50
2022-12-22T02:50:56.105Z,21.70
2022-12-22T02:53:51.813Z,21.80
2022-12-22T02:56:39.965Z,21.90
2022-12-22T02:59:27.083Z,21.90
2022-12-22T03:02:14.993Z,22.10
2022-12-22T03:05:02.633Z,22.20
2022-12-22T03:07:50.101Z,22.30
2022-12-22T03:10:37.667Z,22.30
2022-12-22T03:13:25.269Z,22.40
2022-12-22T03:16:12.854Z,22.50
2022-12-22T03:19:00.809Z,22.50
2022-12-22T03:21:48.623Z,22.60
2022-12-22T03:24:36.009Z,22.70
2022-12-22T03:27:05.143Z,22.80
2022-12-22T03:29:34.247Z,22.90
2022-12-22T03:32:03.996Z,22.90
2022-12-22T03:34:33.145Z,23.00
2022-12-22T03:37:02.229Z,23.10
2022-12-22T03:39:31.554Z,23.20
2022-12-22T03:42:18.952Z,23.30
2022-12-22T03:45:06.367Z,23.40
2022-12-22T03:47:35.465Z,23.50
2022-12-22T03:50:04.641Z,23.60
2022-12-22T03:52:34.868Z,23.70
2022-12-22T03:55:03.958Z,23.80
2022-12-22T03:57:33.095Z,23.90
2022-12-22T04:00:02.281Z,23.90
2022-12-22T04:02:31.431Z,24.00
2022-12-22T04:05:00.601Z,24.10
2022-12-22T04:07:29.787Z,24.10
2022-12-22T04:10:17.840Z,24.20
2022-12-22T04:12:57.486Z,24.20
2022-12-22T04:15:30.263Z,24.20
2022-12-22T04:18:01.493Z,24.20
2022-12-22T04:20:30.969Z,24.30
2022-12-22T04:25:48.260Z,24.40
2022-12-22T04:28:17.697Z,24.50
2022-12-22T04:30:46.884Z,24.60
2022-12-22T04:33:16.209Z,24.70
2022-12-22T04:35:49.332Z,24.80
2022-12-22T04:38:21.533Z,25.00
2022-12-22T04:41:00.027Z,25.00
2022-12-22T04:43:41.347Z,25.20
2022-12-22T04:46:16.128Z,25.30
2022-12-22T04:48:54.667Z,25.50
2022-12-22T04:51:32.179Z,25.60
2022-12-22T04:54:07.045Z,25.80
2022-12-22T04:56:36.275Z,25.80
2022-12-22T04:59:05.772Z,26.00
2022-12-22T05:01:35.279Z,26.00
2022-12-22T05:04:04.586Z,26.10
2022-12-22T05:06:33.838Z,26.20
2022-12-22T05:11:48.934Z,26.40
2022-12-22T05:14:18.223Z,26.60
2022-12-22T05:16:47.488Z,26.70
2022-12-22T05:19:17.028Z,26.80
2022-12-22T05:21:46.586Z,26.90
2022-12-22T05:24:15.904Z,27.00
2022-12-22T05:26:45.169Z,27.00
2022-12-22T05:29:14.396Z,27.00
2022-12-22T05:31:47.172Z,27.00
2022-12-22T05:34:16.902Z,27.00
2022-12-22T05:36:46.169Z,27.10
2022-12-22T05:39:15.356Z,27.10
2022-12-22T05:41:44.625Z,27.20
2022-12-22T05:44:13.811Z,27.40
2022-12-22T05:46:43.761Z,27.50
2022-12-22T05:49:13.070Z,27.60
2022-12-22T05:51:42.301Z,27.60
2022-12-22T05:54:13.331Z,27.70
2022-12-22T05:56:42.865Z,27.70
2022-12-22T05:59:13.446Z,27.80
2022-12-22T06:01:42.726Z,27.70
2022-12-22T06:04:12.189Z,27.80
2022-12-22T06:06:41.551Z,27.90
2022-12-22T06:09:11.228Z,27.90
2022-12-22T06:11:40.422Z,28.00
2022-12-22T06:14:09.728Z,28.00
2022-12-22T06:16:39.099Z,28.00
2022-12-22T06:19:08.503Z,28.00
2022-12-22T06:21:37.736Z,28.00
2022-12-22T06:24:07.357Z,28.00
2022-12-22T06:26:36.771Z,28.10
2022-12-22T06:29:06.126Z,28.20
2022-12-22T06:31:35.490Z,28.30
2022-12-22T06:34:04.921Z,28.40
2022-12-22T06:36:35.551Z,28.50
2022-12-22T06:39:04.856Z,28.60
2022-12-22T06:41:52.370Z,28.60
2022-12-22T06:44:21.616Z,28.70
2022-12-22T06:46:50.920Z,28.70
2022-12-22T06:49:20.741Z,28.70
2022-12-22T06:54:32.708Z,28.70
2022-12-22T06:57:02.137Z,28.70
2022-12-22T06:59:31.356Z,28.70
2022-12-22T07:02:00.711Z,28.80
2022-12-22T07:04:30.907Z,28.80
2022-12-22T07:07:00.172Z,28.80
2022-12-22T07:09:29.717Z,28.80
2022-12-22T07:11:58.869Z,28.90
2022-12-22T07:14:27.926Z,28.90
2022-12-22T07:16:57.209Z,28.90
2022-12-22T07:19:26.319Z,29.00
2022-12-22T07:21:55.461Z,29.10
2022-12-22T07:24:26.800Z,29.10
2022-12-22T07:26:56.042Z,29.20
2022-12-22T07:29:25.412Z,29.20
2022-12-22T07:31:54.808Z,29.20
2022-12-22T07:34:23.904Z,29.20
2022-12-22T07:36:53.088Z,29.30
2022-12-22T07:39:22.209Z,29.30
2022-12-22T07:42:09.449Z,29.30
2022-12-22T07:44:38.607Z,29.30
2022-12-22T07:47:07.760Z,29.30
2022-12-22T07:49:55.144Z,29.40
2022-12-22T07:52:24.362Z,29.40
2022-12-22T07:54:53.444Z,29.50
2022-12-22T07:57:22.521Z,29.50
2022-12-22T07:59:51.642Z,29.50
2022-12-22T08:02:20.800Z,29.50
2022-12-22T08:04:50.158Z,29.50
2022-12-22T08:07:19.425Z,29.50
2022-12-22T08:09:48.975Z,29.50
2022-12-22T08:12:18.319Z,29.50
2022-12-22T08:14:47.511Z,29.60
2022-12-22T08:17:16.716Z,29.60
2022-12-22T08:19:46.077Z,29.60
2022-12-22T08:22:15.284Z,29.60
2022-12-22T08:24:44.485Z,29.60
2022-12-22T08:27:26.005Z,29.60
2022-12-22T08:30:03.383Z,29.60
2022-12-22T08:32:32.641Z,29.60
2022-12-22T08:35:01.895Z,29.50
2022-12-22T08:37:36.053Z,29.50
2022-12-22T08:40:11.015Z,29.40
2022-12-22T08:42:41.337Z,29.50
2022-12-22T08:45:12.384Z,29.50
2022-12-22T08:47:42.301Z,29.50
2022-12-22T08:50:12.306Z,29.50
2022-12-22T08:52:41.483Z,29.50
2022-12-22T08:55:11.627Z,29.60
2022-12-22T08:57:40.861Z,29.60
2022-12-22T09:00:13.939Z,29.60
2022-12-22T09:02:43.272Z,29.60
2022-12-22T09:05:12.457Z,29.60
2022-12-22T09:07:42.167Z,29.50
2022-12-22T09:10:12.734Z,29.50
2022-12-22T09:12:45.263Z,29.40
2022-12-22T09:15:15.793Z,29.40
2022-12-22T09:17:45.024Z,29.30
2022-12-22T09:20:15.159Z,29.30
2022-12-22T09:22:44.496Z,29.20
2022-12-22T09:25:15.197Z,29.20
2022-12-22T09:27:44.436Z,29.20
2022-12-22T09:30:14.371Z,29.10
2022-12-22T09:32:43.682Z,29.10
2022-12-22T09:35:12.949Z,29.10
2022-12-22T09:37:42.194Z,29.10
2022-12-22T09:40:12.593Z,29.00
2022-12-22T09:42:42.018Z,29.00
2022-12-22T09:45:21.061Z,29.00
2022-12-22T09:47:54.888Z,29.00
2022-12-22T09:50:27.975Z,28.90
2022-12-22T09:53:09.470Z,28.80
2022-12-22T09:55:44.263Z,28.70
2022-12-22T09:58:29.759Z,28.70
2022-12-22T10:01:22.434Z,28.70
2022-12-22T10:04:06.886Z,28.60
2022-12-22T10:07:02.220Z,28.60
2022-12-22T10:09:49.721Z,28.50
2022-12-22T10:12:26.633Z,28.50
2022-12-22T10:14:56.841Z,28.40
2022-12-22T10:17:35.660Z,28.40
2022-12-22T10:20:28.566Z,28.30
2022-12-22T10:23:09.347Z,28.20
2022-12-22T10:26:26.049Z,28.20
2022-12-22T10:29:10.223Z,28.10
2022-12-22T10:32:13.327Z,28.00
2022-12-22T10:35:07.087Z,27.90
2022-12-22T10:37:41.987Z,27.80
2022-12-22T10:40:22.613Z,27.80
2022-12-22T10:42:57.294Z,27.70
2022-12-22T10:45:29.254Z,27.60
2022-12-22T10:47:59.867Z,27.50
2022-12-22T10:50:29.091Z,27.40
2022-12-22T10:53:00.012Z,27.30
2022-12-22T10:55:33.863Z,27.30
2022-12-22T10:58:30.855Z,27.10
2022-12-22T11:01:07.321Z,27.10
2022-12-22T11:03:36.636Z,27.00
2022-12-22T11:06:14.797Z,26.80
2022-12-22T11:08:50.961Z,26.80
2022-12-22T11:11:52.911Z,26.70
2022-12-22T11:14:28.905Z,26.50
2022-12-22T11:17:15.978Z,26.40
2022-12-22T11:20:04.605Z,26.30
2022-12-22T11:23:03.331Z,26.20
2022-12-22T11:26:01.200Z,26.10
2022-12-22T11:29:00.219Z,26.00
2022-12-22T11:31:41.479Z,25.90
2022-12-22T11:34:37.675Z,25.80
2022-12-22T11:37:21.574Z,25.70
2022-12-22T11:40:17.838Z,25.50
2022-12-22T11:43:50.025Z,25.50
2022-12-22T11:46:41.734Z,25.40
2022-12-22T11:49:46.576Z,25.30
2022-12-22T11:52:39.773Z,25.20
2022-12-22T11:55:32.035Z,25.10
2022-12-22T11:58:13.026Z,25.10
2022-12-22T12:01:24.110Z,25.10
2022-12-22T12:04:25.371Z,25.10
2022-12-22T12:07:31.661Z,25.00
2022-12-22T12:10:27.629Z,25.00
2022-12-22T12:13:37.456Z,24.90
2022-12-22T12:16:51.750Z,24.80
2022-12-22T12:19:51.839Z,24.80
2022-12-22T12:22:57.894Z,24.80
2022-12-22T12:25:50.453Z,24.70
2022-12-22T12:29:15.085Z,24.70
2022-12-22T12:32:24.911Z,24.60
2022-12-22T12:35:43.923Z,24.60
2022-12-22T12:42:09.919Z,24.40
2022-12-22T12:44:41.261Z,24.40
2022-12-22T12:47:32.824Z,24.30
2022-12-22T12:50:26.632Z,24.20
2022-12-22T12:53:06.456Z,24.20
2022-12-22T12:55:56.912Z,24.10
2022-12-22T12:58:40.783Z,24.00
2022-12-22T13:01:41.925Z,24.00
2022-12-22T13:04:11.695Z,24.00
2022-12-22T13:06:57.062Z,23.90
2022-12-22T13:09:50.556Z,23.90
2022-12-22T13:12:54.926Z,23.80
2022-12-22T13:15:42.485Z,23.70
2022-12-22T13:18:50.793Z,23.60
2022-12-22T13:24:28.570Z,23.50
2022-12-22T13:27:07.686Z,23.40
2022-12-22T13:29:48.492Z,23.40
2022-12-22T13:32:37.150Z,23.40
2022-12-22T13:35:34.639Z,23.40
2022-12-22T13:38:05.248Z,23.40
2022-12-22T13:40:45.022Z,23.40
2022-12-22T13:43:19.124Z,23.40
2022-12-22T13:45:55.452Z,23.40
2022-12-22T13:48:44.769Z,23.40
2022-12-22T13:51:39.422Z,23.40
2022-12-22T13:54:19.315Z,23.30
2022-12-22T13:56:57.639Z,23.30
2022-12-22T13:59:34.040Z,23.20
2022-12-22T14:02:16.555Z,23.20
2022-12-22T14:05:12.556Z,23.20
2022-12-22T14:07:41.929Z,23.20
2022-12-22T14:10:13.909Z,23.10
2022-12-22T14:12:47.520Z,23.10
2022-12-22T14:15:21.714Z,23.00
2022-12-22T14:17:53.122Z,23.00
2022-12-22T14:20:29.980Z,23.00
2022-12-22T14:23:18.945Z,23.00
2022-12-22T14:25:51.362Z,23.00
2022-12-22T14:28:51.683Z,23.00
2022-12-22T14:31:21.807Z,23.00
2022-12-22T14:34:06.311Z,23.00
2022-12-22T14:36:45.229Z,22.90
2022-12-22T14:39:26.867Z,22.90
2022-12-22T14:42:03.955Z,22.80
2022-12-22T14:44:38.690Z,22.70
2022-12-22T14:47:15.931Z,22.70
2022-12-22T14:49:54.030Z,22.70
2022-12-22T14:52:47.864Z,22.70
2022-12-22T14:55:43.118Z,22.60
2022-12-22T14:58:22.124Z,22.60
2022-12-22T15:01:15.111Z,22.60
2022-12-22T15:03:45.841Z,22.60
2022-12-22T15:06:29.318Z,22.60
2022-12-22T15:09:10.595Z,22.50
2022-12-22T15:11:46.999Z,22.50
2022-12-22T15:14:24.834Z,22.50
2022-12-22T15:17:02.825Z,22.40
2022-12-22T15:19:36.376Z,22.40
2022-12-22T15:22:09.398Z,22.40
2022-12-22T15:24:38.521Z,22.40
2022-12-22T15:27:07.734Z,22.40
2022-12-22T15:29:37.154Z,22.30
2022-12-22T15:32:12.986Z,22.30
2022-12-22T15:34:42.713Z,22.20
2022-12-22T15:37:14.855Z,22.10
2022-12-22T15:39:44.392Z,22.00
2022-12-22T15:42:13.541Z,21.90
2022-12-22T15:44:42.944Z,21.80
2022-12-22T15:47:13.936Z,21.70
2022-12-22T15:49:43.269Z,21.60
2022-12-22T15:52:14.205Z,21.50
2022-12-22T15:54:43.575Z,21.40
2022-12-22T15:57:15.695Z,21.40
2022-12-22T15:59:44.882Z,21.30
2022-12-22T16:02:15.714Z,21.30
2022-12-22T16:04:45.055Z,21.30
2022-12-22T16:07:14.608Z,21.30
2022-12-22T16:09:47.995Z,21.20
2022-12-22T16:12:21.293Z,21.30
2022-12-22T16:14:56.352Z,21.30
2022-12-22T16:17:30.258Z,21.20
2022-12-22T16:20:00.783Z,21.30
2022-12-22T16:22:37.430Z,21.20
2022-12-22T16:25:14.478Z,21.20
2022-12-22T16:27:45.079Z,21.20
2022-12-22T16:30:26.957Z,21.20
2022-12-22T16:32:56.969Z,21.20
2022-12-22T16:35:29.802Z,21.20
2022-12-22T16:38:01.623Z,21.20
2022-12-22T16:40:34.505Z,21.30
2022-12-22T16:43:51.224Z,21.30
2022-12-22T16:46:25.732Z,21.30
2022-12-22T16:49:02.217Z,21.30
2022-12-22T16:51:35.468Z,21.30
2022-12-22T16:54:05.469Z,21.40
2022-12-22T16:56:35.807Z,21.30
2022-12-22T16:59:05.570Z,21.30
2022-12-22T17:01:58.601Z,21.30
2022-12-22T17:04:32.102Z,21.30
2022-12-22T17:07:04.429Z,21.30
2022-12-22T17:09:51.701Z,21.20
2022-12-22T17:12:29.547Z,21.20
2022-12-22T17:15:00.203Z,21.20
2022-12-22T17:17:35.379Z,21.20
2022-12-22T17:20:08.904Z,21.10
2022-12-22T17:22:39.297Z,21.10
2022-12-22T17:25:09.552Z,21.10
2022-12-22T17:27:38.661Z,21.10
2022-12-22T17:30:20.369Z,21.10
2022-12-22T17:32:50.227Z,21.10
2022-12-22T17:35:24.766Z,21.10
2022-12-22T17:37:54.380Z,21.10
2022-12-22T17:40:35.206Z,21.10
2022-12-22T17:43:04.412Z,21.10
2022-12-22T17:45:33.531Z,21.10
2022-12-22T17:48:08.173Z,21.10
2022-12-22T17:50:37.629Z,21.10
2022-12-22T17:53:11.340Z,21.10
2022-12-22T17:56:07.071Z,21.10
2022-12-22T17:58:29.806Z,21.10
2022-12-22T18:00:59.039Z,21.10
2022-12-22T18:03:28.297Z,21.00
2022-12-22T18:05:57.542Z,21.00
2022-12-22T18:08:26.783Z,21.00
2022-12-22T18:10:56.520Z,21.00
2022-12-22T18:13:27.143Z,21.00
2022-12-22T18:15:56.798Z,21.00
2022-12-22T18:18:26.045Z,21.00
2022-12-22T18:21:06.652Z,20.90
2022-12-22T18:23:40.267Z,20.90
2022-12-22T18:26:21.658Z,20.90
2022-12-22T18:28:51.996Z,20.90
2022-12-22T18:31:22.361Z,20.90
2022-12-22T18:33:52.820Z,20.80
2022-12-22T18:36:34.714Z,20.80
2022-12-22T18:39:07.550Z,20.80
2022-12-22T18:41:39.344Z,20.70
2022-12-22T18:44:18.472Z,20.60
2022-12-22T18:46:48.130Z,20.60
2022-12-22T18:49:17.816Z,20.60
2022-12-22T18:51:47.856Z,20.50
2022-12-22T18:54:33.420Z,20.50
2022-12-22T18:57:02.549Z,20.50
2022-12-22T18:59:33.471Z,20.50
2022-12-22T19:02:26.552Z,20.40
2022-12-22T19:04:57.656Z,20.40
2022-12-22T19:07:27.917Z,20.40
2022-12-22T19:09:57.676Z,20.40
2022-12-22T19:12:29.702Z,20.40
2022-12-22T19:15:07.251Z,20.40
2022-12-22T19:17:36.459Z,20.40
2022-12-22T19:20:06.593Z,20.40
2022-12-22T19:22:35.737Z,20.40
2022-12-22T19:25:04.966Z,20.40
2022-12-22T19:27:34.245Z,20.30
2022-12-22T19:30:04.824Z,20.30
2022-12-22T19:32:49.325Z,20.30
2022-12-22T19:35:22.051Z,20.20
2022-12-22T19:37:54.179Z,20.20
2022-12-22T19:40:30.800Z,20.20
2022-12-22T19:43:01.333Z,20.20
2022-12-22T19:45:38.035Z,20.20
2022-12-22T19:48:21.567Z,20.20
2022-12-22T19:50:51.894Z,20.20
2022-12-22T19:53:22.703Z,20.10
2022-12-22T19:55:58.041Z,20.10
2022-12-22T19:58:40.812Z,20.00
2022-12-22T20:01:13.146Z,20.00
2022-12-22T20:03:42.446Z,20.00
2022-12-22T20:06:11.869Z,20.00
2022-12-22T20:08:41.691Z,19.90
2022-12-22T20:11:21.594Z,19.80
2022-12-22T20:13:50.889Z,19.80
2022-12-22T20:16:20.099Z,19.70
2022-12-22T20:18:49.303Z,19.70
2022-12-22T20:21:27.919Z,19.70
2022-12-22T20:23:58.803Z,19.60
2022-12-22T20:26:29.229Z,19.60
2022-12-22T20:28:58.347Z,19.60
2022-12-22T20:31:29.320Z,19.60
2022-12-22T20:33:58.559Z,19.60
2022-12-22T20:36:32.823Z,19.60
2022-12-22T20:39:03.507Z,19.60
2022-12-22T20:41:32.751Z,19.60
2022-12-22T20:44:01.857Z,19.60
2022-12-22T20:46:32.436Z,19.60
2022-12-22T20:49:05.445Z,19.60
2022-12-22T20:51:36.035Z,19.60
2022-12-22T20:54:05.314Z,19.60
2022-12-22T20:56:40.366Z,19.50
2022-12-22T20:59:25.494Z,19.50
2022-12-22T21:01:54.968Z,19.40
2022-12-22T21:04:24.227Z,19.30
2022-12-22T21:06:58.356Z,19.20
2022-12-22T21:09:28.567Z,19.20
2022-12-22T21:11:57.675Z,19.10
2022-12-22T21:14:26.794Z,19.00
2022-12-22T21:16:56.058Z,19.00
2022-12-22T21:19:25.230Z,18.90
2022-12-22T21:21:54.844Z,18.80
2022-12-22T21:24:23.984Z,18.80
2022-12-22T21:26:56.505Z,18.80
2022-12-22T21:29:28.472Z,18.70
2022-12-22T21:31:57.863Z,18.70
2022-12-22T21:34:26.939Z,18.70
2022-12-22T21:37:03.953Z,18.70
2022-12-22T21:39:45.706Z,18.70
2022-12-22T21:42:20.897Z,18.70
2022-12-22T21:44:51.301Z,18.60
2022-12-22T21:47:22.101Z,18.60
2022-12-22T21:49:51.382Z,18.60
2022-12-22T21:52:20.505Z,18.60
2022-12-22T21:54:49.742Z,18.60
2022-12-22T21:57:18.933Z,18.60
2022-12-22T21:59:48.056Z,18.60
2022-12-22T22:02:20.694Z,18.60
2022-12-22T22:04:54.617Z,18.60
2022-12-22T22:07:24.665Z,18.60
2022-12-22T22:09:55.085Z,18.50
2022-12-22T22:12:37.899Z,18.50
2022-12-22T22:15:08.931Z,18.50
2022-12-22T22:17:38.250Z,18.50
2022-12-22T22:20:10.909Z,18.50
2022-12-22T22:22:39.990Z,18.50
2022-12-22T22:25:10.464Z,18.50
2022-12-22T22:27:45.776Z,18.50
2022-12-22T22:30:27.404Z,18.40
2022-12-22T22:32:58.308Z,18.40
2022-12-22T22:35:29.416Z,18.40
2022-12-22T22:37:58.642Z,18.40
2022-12-22T22:40:27.729Z,18.40
2022-12-22T22:42:57.967Z,18.30
2022-12-22T22:45:27.145Z,18.30
2022-12-22T22:47:56.413Z,18.30
2022-12-22T22:50:25.709Z,18.30
2022-12-22T22:52:54.788Z,18.30
2022-12-22T22:55:24.162Z,18.20
2022-12-22T22:57:53.279Z,18.20
2022-12-22T23:00:22.910Z,18.20
2022-12-22T23:02:52.223Z,18.20
2022-12-22T23:05:23.174Z,18.20
2022-12-22T23:07:52.633Z,18.20
2022-12-22T23:10:22.417Z,18.20
2022-12-22T23:12:51.482Z,18.20
2022-12-22T23:15:20.637Z,18.20
2022-12-22T23:17:51.859Z,18.10
2022-12-22T23:20:21.270Z,18.10
2022-12-22T23:22:50.349Z,18.10
2022-12-22T23:25:19.468Z,18.00
2022-12-22T23:27:48.521Z,18.00
2022-12-22T23:30:17.764Z,18.00
2022-12-22T23:32:46.913Z,18.00
2022-12-22T23:35:16.071Z,17.90
2022-12-22T23:37:45.152Z,17.90
2022-12-22T23:40:50.683Z,17.90
2022-12-22T23:43:05.195Z,17.80
2022-12-22T23:45:35.353Z,17.80
2022-12-22T23:48:05.252Z,17.90
2022-12-22T23:50:34.474Z,17.80
2022-12-22T23:53:03.874Z,17.80
2022-12-22T23:55:33.168Z,17.80
2022-12-22T23:58:02.237Z,17.80
